createdAt,value
2018-02-25T00:01:36.380Z,103039.33
2018-02-25T00:06:38.864Z,103045.06
2018-02-25T00:11:41.698Z,103039.45
2018-02-25T00:16:44.160Z,103032.09
2018-02-25T00:21:46.636Z,103034.28
2018-02-25T00:26:49.113Z,103037.31
2018-02-25T00:31:51.600Z,103032.12
2018-02-25T00:36:54.098Z,103031.70
2018-02-25T00:41:56.663Z,103039.49
2018-02-25T00:46:59.136Z,103032.98
2018-02-25T00:52:01.621Z,103032.10
2018-02-25T00:57:04.104Z,103025.60
2018-02-25T01:02:06.580Z,103023.82
2018-02-25T01:07:09.085Z,103032.39
2018-02-25T01:12:11.574Z,103027.02
2018-02-25T01:17:14.057Z,103024.86
2018-02-25T01:22:16.555Z,103020.93
2018-02-25T01:27:19.034Z,103019.34
2018-02-25T01:32:22.374Z,103018.30
2018-02-25T01:37:24.865Z,103020.40
2018-02-25T01:42:27.348Z,103019.50
2018-02-25T01:47:29.824Z,103014.22
2018-02-25T01:52:32.320Z,103015.81
2018-02-25T01:57:35.292Z,103014.37
2018-02-25T02:02:37.765Z,103006.75
2018-02-25T02:07:40.272Z,103010.50
2018-02-25T02:12:42.746Z,103019.19
2018-02-25T02:17:45.256Z,103019.94
2018-02-25T02:22:47.760Z,103016.93
2018-02-25T02:27:50.260Z,103015.61
2018-02-25T02:32:52.741Z,103018.19
2018-02-25T02:37:55.241Z,103023.80
2018-02-25T02:42:57.740Z,103018.55
2018-02-25T02:48:00.217Z,103019.06
2018-02-25T02:53:02.703Z,103020.48
2018-02-25T02:58:05.180Z,103017.41
2018-02-25T03:03:07.660Z,103017.67
2018-02-25T03:08:10.165Z,103019.81
2018-02-25T03:13:12.713Z,103029.08
2018-02-25T03:18:15.236Z,103028.04
2018-02-25T03:23:17.927Z,103024.45
2018-02-25T03:28:20.434Z,103030.42
2018-02-25T03:33:22.944Z,103022.52
2018-02-25T03:38:25.460Z,103016.33
2018-02-25T03:43:27.948Z,103014.64
2018-02-25T03:48:30.412Z,103020.14
2018-02-25T03:53:32.896Z,103024.41
2018-02-25T03:58:35.352Z,103019.14
2018-02-25T04:03:37.888Z,103010.41
2018-02-25T04:08:40.392Z,103018.57
2018-02-25T04:13:42.913Z,103018.80
2018-02-25T04:18:45.423Z,103008.84
2018-02-25T04:23:47.952Z,103012.42
2018-02-25T04:28:50.444Z,103021.73
2018-02-25T04:33:52.953Z,103020.77
2018-02-25T04:38:55.438Z,103016.50
2018-02-25T04:43:57.925Z,103014.23
2018-02-25T04:49:00.459Z,103011.41
2018-02-25T04:54:02.962Z,103012.42
2018-02-25T04:59:05.469Z,103013.58
2018-02-25T05:04:08.013Z,103016.52
2018-02-25T05:09:10.570Z,103015.05
2018-02-25T05:14:13.126Z,103013.28
2018-02-25T05:19:15.648Z,103016.78
2018-02-25T05:24:18.122Z,103015.41
2018-02-25T05:29:20.630Z,103013.43
2018-02-25T05:34:23.143Z,103028.31
2018-02-25T05:39:26.047Z,103017.59
2018-02-25T05:44:28.534Z,103022.56
2018-02-25T05:49:31.081Z,103019.53
2018-02-25T05:54:33.568Z,103029.89
2018-02-25T05:59:36.051Z,103029.79
2018-02-25T06:04:38.637Z,103033.94
2018-02-25T06:09:41.153Z,103040.96
2018-02-25T06:14:43.654Z,103043.17
2018-02-25T06:19:46.142Z,103040.34
2018-02-25T06:24:48.641Z,103046.84
2018-02-25T06:29:51.116Z,103047.13
2018-02-25T06:34:53.618Z,103042.06
2018-02-25T06:39:56.278Z,103042.25
2018-02-25T06:44:58.832Z,103043.13
2018-02-25T06:50:01.327Z,103046.56
2018-02-25T06:55:03.809Z,103045.30
2018-02-25T07:00:06.294Z,103048.45
2018-02-25T07:05:08.824Z,103047.77
2018-02-25T07:10:11.381Z,103048.36
2018-02-25T07:15:13.901Z,103051.17
2018-02-25T07:20:16.422Z,103052.72
2018-02-25T07:25:18.984Z,103050.04
2018-02-25T07:30:21.448Z,103048.94
2018-02-25T07:35:23.928Z,103043.84
2018-02-25T07:40:26.926Z,103047.73
2018-02-25T07:45:29.445Z,103048.99
2018-02-25T07:50:31.915Z,103053.29
2018-02-25T07:55:34.392Z,103048.44
2018-02-25T08:00:36.981Z,103048.39
2018-02-25T08:05:39.489Z,103050.94
2018-02-25T08:10:42.690Z,103053.41
2018-02-25T08:15:45.485Z,103046.79
2018-02-25T08:20:47.977Z,103043.69
2018-02-25T08:25:50.478Z,103043.85
2018-02-25T08:30:52.977Z,103041.13
2018-02-25T08:35:56.134Z,103033.13
2018-02-25T08:40:58.629Z,103028.85
2018-02-25T08:46:01.164Z,103029.25
2018-02-25T08:51:03.634Z,103038.73
2018-02-25T08:56:06.114Z,103039.91
2018-02-25T09:01:08.626Z,103044.13
2018-02-25T09:06:11.238Z,103040.86
2018-02-25T09:11:13.767Z,103026.53
2018-02-25T09:16:16.256Z,103029.63
2018-02-25T09:21:18.764Z,103023.77
2018-02-25T09:26:21.243Z,103020.29
2018-02-25T09:31:23.721Z,103019.86
2018-02-25T09:36:26.179Z,103017.81
2018-02-25T09:41:28.678Z,103012.03
2018-02-25T09:46:31.157Z,103014.27
2018-02-25T09:51:33.619Z,102999.27
2018-02-25T09:56:36.097Z,102990.94
2018-02-25T10:01:38.663Z,102981.04
2018-02-25T10:06:41.206Z,102982.27
2018-02-25T10:11:43.705Z,102974.56
2018-02-25T10:16:46.256Z,102964.64
2018-02-25T10:21:48.720Z,102967.55
2018-02-25T10:26:51.194Z,102959.02
2018-02-25T10:31:53.733Z,102946.64
2018-02-25T10:36:56.212Z,102930.31
2018-02-25T10:41:58.684Z,102931.41
2018-02-25T10:47:01.172Z,102933.86
2018-02-25T10:52:03.650Z,102920.41
2018-02-25T10:57:06.154Z,102913.80
2018-02-25T11:02:08.729Z,102910.42
2018-02-25T11:07:11.221Z,102913.41
2018-02-25T11:12:13.727Z,102908.76
2018-02-25T11:17:16.224Z,102886.23
2018-02-25T11:22:18.711Z,102874.27
2018-02-25T11:27:21.211Z,102869.05
2018-02-25T11:32:23.675Z,102860.80
2018-02-25T11:37:26.141Z,102861.16
2018-02-25T11:42:28.608Z,102862.12
2018-02-25T11:47:31.077Z,102852.95
2018-02-25T11:52:33.545Z,102840.95
2018-02-25T11:57:36.022Z,102847.11
2018-02-25T12:02:38.573Z,102854.66
2018-02-25T12:07:41.118Z,102847.98
2018-02-25T12:12:43.639Z,102837.91
2018-02-25T12:17:46.148Z,102830.24
2018-02-25T12:22:48.673Z,102822.73
2018-02-25T12:27:51.140Z,102820.92
2018-02-25T12:32:53.640Z,102815.50
2018-02-25T12:37:57.570Z,102822.31
2018-02-25T12:43:00.210Z,102816.39
2018-02-25T12:48:02.731Z,102805.30
2018-02-25T12:53:06.056Z,102791.22
2018-02-25T12:58:08.876Z,102799.88
2018-02-25T13:03:12.298Z,102788.52
2018-02-25T13:13:39.522Z,102779.34
2018-02-25T13:18:42.012Z,102768.69
2018-02-25T13:23:44.800Z,102783.11
2018-02-25T13:28:47.426Z,102774.38
2018-02-25T13:33:49.913Z,102773.14
2018-02-25T13:38:52.539Z,102778.38
2018-02-25T13:43:55.963Z,102767.70
2018-02-25T13:48:58.413Z,102769.57
2018-02-25T13:54:00.875Z,102769.37
2018-02-25T13:59:03.341Z,102757.95
2018-02-25T14:04:05.817Z,102750.22
2018-02-25T14:09:08.387Z,102756.70
2018-02-25T14:14:10.950Z,102749.33
2018-02-25T14:19:14.415Z,102744.78
2018-02-25T14:24:16.976Z,102754.09
2018-02-25T14:29:19.529Z,102738.03
2018-02-25T14:34:22.020Z,102742.88
2018-02-25T14:39:24.506Z,102743.12
2018-02-25T14:44:26.994Z,102734.98
2018-02-25T14:49:29.472Z,102737.39
2018-02-25T14:54:31.942Z,102728.52
2018-02-25T14:59:34.438Z,102723.16
2018-02-25T15:04:36.977Z,102714.20
2018-02-25T15:09:39.676Z,102714.66
2018-02-25T15:14:42.171Z,102715.45
2018-02-25T15:19:44.804Z,102715.00
2018-02-25T15:24:47.298Z,102713.61
2018-02-25T15:29:49.843Z,102712.16
2018-02-25T15:34:52.462Z,102707.13
2018-02-25T15:39:54.929Z,102711.47
2018-02-25T15:44:57.602Z,102710.87
2018-02-25T15:50:00.079Z,102717.75
2018-02-25T15:55:02.635Z,102710.17
2018-02-25T16:00:05.119Z,102721.09
2018-02-25T16:05:07.608Z,102717.27
2018-02-25T16:10:10.124Z,102717.87
2018-02-25T16:15:12.673Z,102717.59
2018-02-25T16:20:15.253Z,102714.17
2018-02-25T16:25:17.826Z,102718.39
2018-02-25T16:30:20.320Z,102721.03
2018-02-25T16:35:22.787Z,102725.28
2018-02-25T16:40:25.264Z,102729.70
2018-02-25T16:45:27.813Z,102729.88
2018-02-25T16:50:30.335Z,102733.66
2018-02-25T16:55:32.854Z,102738.44
2018-02-25T17:00:35.459Z,102741.72
2018-02-25T17:05:40.752Z,102747.41
2018-02-25T17:10:43.409Z,102749.00
2018-02-25T17:15:45.997Z,102753.97
2018-02-25T17:20:48.495Z,102752.34
2018-02-25T17:25:51.012Z,102747.74
2018-02-25T17:30:53.481Z,102751.77
2018-02-25T17:35:55.964Z,102758.44
2018-02-25T17:40:58.486Z,102755.44
2018-02-25T17:46:00.966Z,102756.20
2018-02-25T17:51:03.522Z,102751.65
2018-02-25T17:56:05.998Z,102748.73
2018-02-25T18:01:08.500Z,102747.23
2018-02-25T18:06:11.144Z,102749.34
2018-02-25T18:11:13.925Z,102744.06
2018-02-25T18:16:16.445Z,102744.66
2018-02-25T18:21:19.038Z,102750.44
2018-02-25T18:26:21.525Z,102751.32
2018-02-25T18:31:23.994Z,102755.67
2018-02-25T18:36:26.470Z,102756.87
2018-02-25T18:41:28.946Z,102761.45
2018-02-25T18:46:31.629Z,102757.91
2018-02-25T18:51:34.122Z,102767.73
2018-02-25T18:56:36.663Z,102770.69
2018-02-25T19:01:39.197Z,102773.36
2018-02-25T19:06:42.220Z,102777.63
2018-02-25T19:11:44.831Z,102778.97
2018-02-25T19:16:47.330Z,102775.87
2018-02-25T19:21:49.824Z,102773.07
2018-02-25T19:26:52.303Z,102775.44
2018-02-25T19:31:54.771Z,102777.02
2018-02-25T19:37:03.056Z,102774.67
2018-02-25T19:42:05.578Z,102784.14
2018-02-25T19:47:08.626Z,102783.42
2018-02-25T19:52:11.229Z,102791.28
2018-02-25T19:57:14.011Z,102788.24
2018-02-25T20:02:16.570Z,102783.28
2018-02-25T20:07:19.094Z,102784.78
2018-02-25T20:12:21.625Z,102790.70
2018-02-25T20:17:24.136Z,102784.79
2018-02-25T20:22:26.604Z,102781.36
2018-02-25T20:27:29.147Z,102787.20
2018-02-25T20:32:31.611Z,102783.01
2018-02-25T20:37:34.205Z,102788.97
2018-02-25T20:42:36.724Z,102787.20
2018-02-25T20:47:39.285Z,102777.52
2018-02-25T20:52:41.804Z,102780.77
2018-02-25T20:57:44.286Z,102792.20
2018-02-25T21:02:47.120Z,102792.42
2018-02-25T21:07:49.600Z,102796.64
2018-02-25T21:12:52.101Z,102791.45
2018-02-25T21:17:54.587Z,102786.77
2018-02-25T21:22:57.068Z,102787.56
2018-02-25T21:27:59.540Z,102788.23
2018-02-25T21:33:02.156Z,102786.86
2018-02-25T21:38:05.755Z,102785.53
2018-02-25T21:43:08.303Z,102788.17
2018-02-25T21:48:10.894Z,102791.77
2018-02-25T21:53:14.343Z,102800.78
2018-02-25T21:58:22.454Z,102798.86
2018-02-25T22:03:30.499Z,102799.32
2018-02-25T22:08:33.872Z,102794.08
2018-02-25T22:13:36.449Z,102789.75
2018-02-25T22:18:39.048Z,102779.28
2018-02-25T22:23:41.560Z,102775.56
2018-02-25T22:28:44.046Z,102775.08
2018-02-25T22:33:46.560Z,102769.70
2018-02-25T22:38:49.076Z,102773.03
2018-02-25T22:43:51.575Z,102780.82
2018-02-25T22:48:54.150Z,102775.48
2018-02-25T22:53:56.632Z,102776.30
2018-02-25T22:58:59.118Z,102777.46
2018-02-25T23:04:01.641Z,102779.07
2018-02-25T23:09:04.360Z,102784.41
2018-02-25T23:14:06.866Z,102788.81
2018-02-25T23:19:09.400Z,102782.42
2018-02-25T23:24:11.908Z,102785.28
2018-02-25T23:29:14.401Z,102790.16
2018-02-25T23:34:16.896Z,102781.34
2018-02-25T23:39:19.375Z,102775.74
2018-02-25T23:44:21.857Z,102775.63
2018-02-25T23:49:24.350Z,102783.79
2018-02-25T23:54:26.828Z,102774.31
2018-02-25T23:59:29.313Z,102776.77
